Time;durP1;ratioP1;P1;durP2;ratioP2;P2;SDS_P1;SDS_P2;PMS_P1;PMS_P2;Temp;Humidity;BMP_temperature;BMP_pressure;BME280_temperature;BME280_humidity;BME280_pressure;Samples;Min_cycle;Max_cycle;Signal;HPM_P1;HPM_P2
2021/01/15 00:01:04;;;;;;;8.70;6.70;;;-2.30;99.90;;;;;;5073160;28;20426;-71
2021/01/15 00:03:35;;;;;;;10.80;6.20;;;-2.30;99.90;;;;;;5073025;28;20446;-71
2021/01/15 00:06:05;;;;;;;8.40;7.07;;;-2.30;99.90;;;;;;5073390;28;20426;-71
2021/01/15 00:08:35;;;;;;;10.87;7.67;;;-2.30;99.90;;;;;;5072782;28;20493;-71
2021/01/15 00:11:06;;;;;;;8.57;6.53;;;-2.30;99.90;;;;;;5073059;28;20420;-72
2021/01/15 00:13:32;;;;;;;9.20;6.93;;;-2.30;99.90;;;;;;5073171;28;21049;-71
2021/01/15 00:16:00;;;;;;;11.10;7.40;;;-2.30;99.90;;;;;;5072736;28;20441;-71
2021/01/15 00:18:26;;;;;;;13.23;7.60;;;-2.30;99.90;;;;;;5071934;28;20953;-71
2021/01/15 00:20:53;;;;;;;10.77;7.17;;;-2.30;99.90;;;;;;5071426;28;20422;-71
2021/01/15 00:23:20;;;;;;;10.27;8.13;;;-2.30;99.90;;;;;;5071968;28;20962;-71
2021/01/15 00:25:47;;;;;;;12.83;7.07;;;-2.30;99.90;;;;;;5072603;28;20430;-71
2021/01/15 00:28:14;;;;;;;14.60;7.40;;;-2.30;99.90;;;;;;5072496;28;20457;-71
2021/01/15 00:30:40;;;;;;;12.20;8.00;;;-2.30;99.90;;;;;;5072260;28;20487;-71
2021/01/15 00:33:08;;;;;;;9.53;7.23;;;-2.40;99.90;;;;;;5072341;28;20454;-71
2021/01/15 00:35:34;;;;;;;10.67;8.57;;;-2.40;99.90;;;;;;5072452;28;20433;-71
2021/01/15 00:38:01;;;;;;;12.17;7.83;;;-2.40;99.90;;;;;;5071941;28;20437;-71
2021/01/15 00:40:28;;;;;;;13.13;8.47;;;-2.40;99.90;;;;;;5072381;28;20543;-71
2021/01/15 00:42:54;;;;;;;9.50;6.87;;;-2.40;99.90;;;;;;5072113;28;20449;-71
2021/01/15 00:45:21;;;;;;;14.47;9.27;;;-2.40;99.90;;;;;;5072171;28;20434;-71
2021/01/15 00:47:48;;;;;;;12.53;8.03;;;-2.40;99.90;;;;;;5072193;28;20433;-71
2021/01/15 00:50:15;;;;;;;12.53;7.07;;;-2.40;99.90;;;;;;5072144;28;20433;-71
2021/01/15 00:52:42;;;;;;;14.30;8.10;;;-2.40;99.90;;;;;;5071962;28;20449;-71
2021/01/15 00:55:09;;;;;;;11.83;8.73;;;-2.40;99.90;;;;;;5071755;28;20479;-71
2021/01/15 00:57:39;;;;;;;8.97;6.97;;;-2.50;99.90;;;;;;5071959;28;20911;-71
2021/01/15 01:00:08;;;;;;;11.03;7.93;;;-2.40;99.90;;;;;;5071163;28;20827;-71
2021/01/15 01:02:35;;;;;;;13.27;9.47;;;-2.40;99.90;;;;;;5071637;28;20451;-71
2021/01/15 01:05:03;;;;;;;11.47;8.03;;;-2.40;99.90;;;;;;5072075;28;20433;-71
2021/01/15 01:07:33;;;;;;;11.37;7.90;;;-2.40;99.90;;;;;;5071946;28;20433;-71
2021/01/15 01:10:00;;;;;;;13.67;8.87;;;-2.40;99.90;;;;;;5071721;28;20434;-71
2021/01/15 01:12:26;;;;;;;13.17;8.07;;;-2.40;99.90;;;;;;5071496;28;20929;-71
2021/01/15 01:14:53;;;;;;;8.97;7.00;;;-2.40;99.90;;;;;;5071146;28;20858;-71
2021/01/15 01:17:20;;;;;;;11.03;7.13;;;-2.40;99.90;;;;;;5071552;28;20434;-71
2021/01/15 01:19:46;;;;;;;9.43;6.47;;;-2.40;99.90;;;;;;5071045;28;20476;-71
2021/01/15 01:22:13;;;;;;;11.43;7.67;;;-2.40;99.90;;;;;;5071230;28;20418;-71
2021/01/15 01:24:40;;;;;;;8.87;6.63;;;-2.50;99.90;;;;;;5078211;28;20440;-71
2021/01/15 01:27:07;;;;;;;11.50;7.37;;;-2.50;99.90;;;;;;5091644;28;20441;-71
2021/01/15 01:29:34;;;;;;;11.50;7.40;;;-2.50;99.90;;;;;;5091652;28;20840;-71
2021/01/15 01:32:04;;;;;;;9.10;6.60;;;-2.50;99.90;;;;;;5091393;28;20433;-71
2021/01/15 01:34:31;;;;;;;11.53;8.20;;;-2.50;99.90;;;;;;5091854;28;20441;-71
2021/01/15 01:36:58;;;;;;;12.20;7.20;;;-2.50;99.90;;;;;;5083944;28;20458;-71
2021/01/15 01:39:25;;;;;;;11.87;7.50;;;-2.50;99.90;;;;;;5070748;28;20520;-71
2021/01/15 01:41:53;;;;;;;12.70;7.87;;;-2.50;99.90;;;;;;5070941;28;20536;-71
2021/01/15 01:44:20;;;;;;;11.60;6.83;;;-2.50;99.90;;;;;;5071299;28;20453;-71
2021/01/15 01:46:47;;;;;;;13.20;7.80;;;-2.50;99.90;;;;;;5071496;28;20434;-71
2021/01/15 01:49:14;;;;;;;10.60;7.00;;;-2.40;99.90;;;;;;5071538;28;20434;-71
2021/01/15 01:51:42;;;;;;;12.30;7.93;;;-2.40;99.90;;;;;;5071635;28;20430;-72
2021/01/15 01:54:10;;;;;;;11.40;8.00;;;-2.50;99.90;;;;;;5070195;28;20463;-71
2021/01/15 01:56:36;;;;;;;10.07;7.23;;;-2.50;99.90;;;;;;5070985;28;20423;-71
2021/01/15 01:59:05;;;;;;;10.93;7.70;;;-2.50;99.90;;;;;;5070912;28;20527;-72
2021/01/15 02:01:31;;;;;;;12.27;7.70;;;-2.50;99.90;;;;;;5070775;28;20430;-71
2021/01/15 02:04:00;;;;;;;13.60;8.40;;;-2.60;99.90;;;;;;5070975;28;20488;-72
2021/01/15 02:06:28;;;;;;;13.07;7.77;;;-2.60;99.90;;;;;;5070804;28;20430;-71
2021/01/15 02:08:55;;;;;;;10.70;7.27;;;-2.50;99.90;;;;;;5070447;28;20437;-72
2021/01/15 02:11:32;;;;;;;9.10;7.27;;;-2.50;99.90;;;;;;5070675;28;20430;-71
2021/01/15 02:14:05;;;;;;;12.00;7.97;;;-2.60;99.90;;;;;;5070605;28;20449;-71
2021/01/15 02:16:33;;;;;;;12.77;9.10;;;-2.60;99.90;;;;;;5070800;28;20426;-71
2021/01/15 02:19:11;;;;;;;14.20;8.77;;;-2.50;99.90;;;;;;5069707;28;20497;-72
2021/01/15 02:22:14;;;;;;;12.40;8.23;;;-2.50;99.90;;;;;;5070623;28;20426;-72
2021/01/15 02:25:03;;;;;;;14.33;8.20;;;-2.60;99.90;;;;;;5070367;28;20438;-71
2021/01/15 02:27:53;;;;;;;15.53;9.60;;;-2.60;99.90;;;;;;5070161;28;20517;-72
2021/01/15 02:30:29;;;;;;;14.27;9.23;;;-2.60;99.90;;;;;;5070677;28;20438;-71
2021/01/15 02:33:03;;;;;;;13.30;8.57;;;-2.60;99.90;;;;;;5070411;28;20442;-71
2021/01/15 02:35:49;;;;;;;15.87;10.37;;;-2.50;99.90;;;;;;5070876;28;20419;-71
2021/01/15 02:38:30;;;;;;;14.80;8.70;;;-2.50;99.90;;;;;;5070304;28;20445;-72
2021/01/15 02:41:19;;;;;;;14.00;9.33;;;-2.50;99.90;;;;;;5070151;28;20426;-71
2021/01/15 02:43:50;;;;;;;14.30;9.30;;;-2.50;99.90;;;;;;5066019;28;20465;-71
2021/01/15 02:46:22;;;;;;;14.80;9.23;;;-2.60;99.90;;;;;;5074928;28;20418;-71
2021/01/15 02:49:02;;;;;;;16.47;9.10;;;-2.60;99.90;;;;;;5075189;28;20841;-72
2021/01/15 02:51:33;;;;;;;13.03;8.60;;;-2.60;99.90;;;;;;5074088;28;20429;-71
2021/01/15 02:53:59;;;;;;;12.53;9.27;;;-2.70;99.90;;;;;;5074260;28;20478;-71
2021/01/15 02:56:26;;;;;;;15.23;8.97;;;-2.70;99.90;;;;;;5073893;28;20414;-71
2021/01/15 02:58:53;;;;;;;16.83;9.77;;;-2.70;99.90;;;;;;5073983;28;20473;-71
2021/01/15 03:01:22;;;;;;;13.53;8.77;;;-2.70;99.90;;;;;;5074186;28;20429;-72
2021/01/15 03:03:51;;;;;;;16.60;10.10;;;-2.70;99.90;;;;;;5073980;28;20473;-72
2021/01/15 03:06:32;;;;;;;16.50;10.33;;;-2.70;99.90;;;;;;5074390;28;20471;-72
2021/01/15 03:09:01;;;;;;;13.53;8.37;;;-2.70;99.90;;;;;;5073207;28;20450;-71
2021/01/15 03:11:30;;;;;;;12.67;8.60;;;-2.70;99.90;;;;;;5073895;28;20430;-71
2021/01/15 03:13:59;;;;;;;12.17;8.90;;;-2.70;99.90;;;;;;5074013;28;20466;-72
2021/01/15 03:16:28;;;;;;;14.00;9.00;;;-2.70;99.90;;;;;;5073999;28;20449;-72
2021/01/15 03:18:59;;;;;;;15.57;9.33;;;-2.70;99.90;;;;;;5073372;28;20465;-72
2021/01/15 03:21:28;;;;;;;12.13;8.83;;;-2.70;99.90;;;;;;5073428;28;20438;-71
2021/01/15 03:23:56;;;;;;;13.17;8.27;;;-2.70;99.90;;;;;;5073858;28;20446;-72
2021/01/15 03:26:23;;;;;;;15.30;9.50;;;-2.70;99.90;;;;;;5073663;28;20495;-71
2021/01/15 03:28:50;;;;;;;16.87;9.37;;;-2.70;99.90;;;;;;5073756;28;20487;-72
2021/01/15 03:31:17;;;;;;;13.37;8.60;;;-2.70;99.90;;;;;;5073621;28;20475;-72
2021/01/15 03:33:43;;;;;;;15.20;10.33;;;-2.70;99.90;;;;;;5073372;28;20809;-72
2021/01/15 03:36:11;;;;;;;13.40;9.50;;;-2.60;99.90;;;;;;5072720;28;20446;-72
2021/01/15 03:38:38;;;;;;;14.37;9.80;;;-2.70;99.90;;;;;;5090372;28;20490;-71
2021/01/15 03:41:05;;;;;;;12.30;7.87;;;-2.70;99.90;;;;;;5093589;28;20934;-72
2021/01/15 03:43:31;;;;;;;16.70;9.67;;;-2.70;99.90;;;;;;5093691;28;20453;-72
2021/01/15 03:45:58;;;;;;;14.67;9.30;;;-2.70;99.90;;;;;;5093678;28;20421;-71
2021/01/15 03:48:25;;;;;;;11.23;8.37;;;-2.70;99.90;;;;;;5093921;28;20425;-72
2021/01/15 03:50:51;;;;;;;14.07;8.50;;;-2.70;99.90;;;;;;5093447;28;20436;-72
2021/01/15 03:53:18;;;;;;;17.83;10.37;;;-2.70;99.90;;;;;;5093193;28;20465;-72
2021/01/15 03:55:47;;;;;;;15.87;11.20;;;-2.70;99.90;;;;;;5077523;28;20447;-72
2021/01/15 03:58:17;;;;;;;12.97;8.27;;;-2.80;99.90;;;;;;5073321;28;20426;-72
2021/01/15 04:00:43;;;;;;;11.60;8.97;;;-2.80;99.90;;;;;;5072833;28;20480;-71
2021/01/15 04:03:10;;;;;;;19.53;10.17;;;-2.90;99.90;;;;;;5072571;28;20477;-72
2021/01/15 04:05:37;;;;;;;15.03;8.60;;;-2.90;99.90;;;;;;5073148;28;20422;-71
2021/01/15 04:08:05;;;;;;;16.73;9.07;;;-2.80;99.90;;;;;;5073061;28;20422;-72
2021/01/15 04:10:31;;;;;;;15.00;9.77;;;-2.80;99.90;;;;;;5072627;28;20437;-72
2021/01/15 04:12:59;;;;;;;14.73;8.83;;;-2.90;99.90;;;;;;5072838;28;20454;-71
2021/01/15 04:15:25;;;;;;;11.33;7.70;;;-2.90;99.90;;;;;;5073061;28;20426;-71
2021/01/15 04:17:52;;;;;;;19.43;8.10;;;-2.90;99.90;;;;;;5072799;28;20418;-72
2021/01/15 04:20:19;;;;;;;14.93;9.93;;;-2.90;99.90;;;;;;5072288;28;20477;-72
2021/01/15 04:22:47;;;;;;;12.70;8.70;;;-2.90;99.90;;;;;;5072154;28;20442;-71
2021/01/15 04:25:14;;;;;;;14.83;9.83;;;-2.90;99.90;;;;;;5072347;28;20434;-73
2021/01/15 04:27:42;;;;;;;12.33;8.40;;;-2.80;99.90;;;;;;5072161;28;20438;-72
2021/01/15 04:30:12;;;;;;;14.00;9.37;;;-2.90;99.90;;;;;;5072574;28;20794;-72
2021/01/15 04:32:44;;;;;;;14.20;9.63;;;-2.80;99.90;;;;;;5072633;28;20853;-72
2021/01/15 04:35:13;;;;;;;13.00;8.40;;;-2.90;99.90;;;;;;5089885;28;20433;-72
2021/01/15 04:37:39;;;;;;;16.00;9.70;;;-2.90;99.90;;;;;;5079731;28;20476;-72
2021/01/15 04:40:08;;;;;;;16.33;9.80;;;-3.00;99.90;;;;;;5072394;28;20472;-72
2021/01/15 04:42:36;;;;;;;16.20;9.67;;;-3.00;99.90;;;;;;5072109;28;20446;-72
2021/01/15 04:45:03;;;;;;;13.53;8.60;;;-3.00;99.90;;;;;;5071313;28;20442;-72
2021/01/15 04:47:34;;;;;;;11.17;7.90;;;-3.00;99.90;;;;;;5072332;28;20919;-72
2021/01/15 04:50:01;;;;;;;12.97;8.53;;;-3.00;99.90;;;;;;5072305;28;20912;-72
2021/01/15 04:52:34;;;;;;;16.93;8.63;;;-3.00;99.90;;;;;;5071887;28;20441;-72
2021/01/15 04:55:00;;;;;;;19.40;9.00;;;-3.00;99.90;;;;;;5071361;28;20457;-72
2021/01/15 04:57:35;;;;;;;17.03;9.77;;;-3.00;99.90;;;;;;5072159;28;20422;-71
2021/01/15 05:00:05;;;;;;;12.27;8.90;;;-3.00;99.90;;;;;;5071918;28;20469;-72
2021/01/15 05:02:34;;;;;;;13.17;9.10;;;-3.00;99.90;;;;;;5071770;28;20441;-72
2021/01/15 05:05:02;;;;;;;15.60;9.50;;;-3.00;99.90;;;;;;5072126;28;20910;-72
2021/01/15 05:07:31;;;;;;;18.03;9.53;;;-3.00;99.90;;;;;;5071351;28;20426;-71
2021/01/15 05:09:58;;;;;;;15.20;9.80;;;-3.00;99.90;;;;;;5071043;28;20450;-72
2021/01/15 05:12:30;;;;;;;13.23;8.97;;;-3.00;99.90;;;;;;5071714;28;20830;-72
2021/01/15 05:14:57;;;;;;;13.60;9.67;;;-3.00;99.90;;;;;;5071821;28;20442;-72
2021/01/15 05:17:27;;;;;;;16.20;9.50;;;-3.00;99.90;;;;;;5071850;28;20919;-72
2021/01/15 05:19:57;;;;;;;16.10;10.33;;;-3.10;99.90;;;;;;5070949;28;20469;-72
2021/01/15 05:22:24;;;;;;;17.80;10.00;;;-3.10;99.90;;;;;;5071385;28;20525;-71
2021/01/15 05:24:50;;;;;;;22.97;9.33;;;-3.10;99.90;;;;;;5071449;28;20464;-72
2021/01/15 05:30:23;;;;;;;14.03;8.60;;;-3.10;99.90;;;;;;5063178;28;20520;-72
2021/01/15 05:32:50;;;;;;;16.93;9.70;;;-3.10;99.90;;;;;;5071052;28;20450;-72
2021/01/15 05:35:19;;;;;;;16.83;10.73;;;-3.10;99.90;;;;;;5079829;28;20433;-71
2021/01/15 05:37:57;;;;;;;22.00;10.20;;;-3.10;99.90;;;;;;5091661;28;20417;-71
2021/01/15 05:40:44;;;;;;;17.43;10.93;;;-3.10;99.90;;;;;;5091706;28;20469;-71
2021/01/15 05:43:19;;;;;;;13.67;9.40;;;-3.10;99.90;;;;;;5085333;28;20485;-71
2021/01/15 05:46:10;;;;;;;16.43;9.27;;;-3.00;99.90;;;;;;5071177;28;20429;-71
2021/01/15 05:48:39;;;;;;;14.47;10.87;;;-3.00;99.90;;;;;;5071312;28;20492;-72
2021/01/15 05:51:22;;;;;;;14.30;9.67;;;-3.10;99.90;;;;;;5071123;28;20441;-71
2021/01/15 05:53:49;;;;;;;16.00;10.23;;;-3.10;99.90;;;;;;5071240;28;20470;-71
2021/01/15 05:56:16;;;;;;;19.37;11.27;;;-3.10;99.90;;;;;;5070414;28;20562;-71
2021/01/15 05:59:01;;;;;;;20.03;10.27;;;-3.10;99.90;;;;;;5070941;28;20430;-71
2021/01/15 06:01:42;;;;;;;16.73;11.27;;;-3.10;99.90;;;;;;5070908;28;20441;-71
2021/01/15 06:04:10;;;;;;;15.83;11.03;;;-3.20;99.90;;;;;;5071095;28;20450;-72
2021/01/15 06:06:38;;;;;;;15.27;10.13;;;-3.20;99.90;;;;;;5071476;28;20549;-72
2021/01/15 06:09:06;;;;;;;30.60;19.70;;;-3.20;99.90;;;;;;5071044;28;20465;-71
2021/01/15 06:11:34;;;;;;;29.87;19.27;;;-3.20;99.90;;;;;;5070576;28;20433;-71
2021/01/15 06:14:01;;;;;;;20.00;12.47;;;-3.10;99.90;;;;;;5070583;28;21158;-71
2021/01/15 06:16:28;;;;;;;45.43;28.57;;;-3.20;99.90;;;;;;5070900;28;20830;-71
2021/01/15 06:19:02;;;;;;;28.07;21.57;;;-3.20;99.90;;;;;;5070464;28;20442;-71
2021/01/15 06:21:34;;;;;;;24.50;17.37;;;-3.20;99.90;;;;;;5070307;28;20503;-71
2021/01/15 06:24:05;;;;;;;19.03;13.67;;;-3.20;99.90;;;;;;5070935;28;21110;-73
2021/01/15 06:26:37;;;;;;;14.57;11.37;;;-3.20;99.90;;;;;;5070265;28;20456;-72
2021/01/15 06:29:14;;;;;;;20.73;15.00;;;-3.20;99.90;;;;;;5070275;28;20496;-71
2021/01/15 06:31:48;;;;;;;20.97;15.73;;;-3.20;99.90;;;;;;5070688;28;20524;-71
2021/01/15 06:34:16;;;;;;;29.10;17.43;;;-3.20;99.90;;;;;;5070798;28;20586;-71
2021/01/15 06:36:50;;;;;;;20.57;12.17;;;-3.20;99.90;;;;;;5070803;28;20454;-71
2021/01/15 06:39:19;;;;;;;103.87;47.37;;;-3.20;99.90;;;;;;5069888;28;20481;-71
2021/01/15 06:41:46;;;;;;;57.93;34.77;;;-3.20;99.90;;;;;;5070532;28;20487;-71
2021/01/15 06:44:15;;;;;;;29.37;19.53;;;-3.20;99.90;;;;;;5077559;28;20469;-71
2021/01/15 06:46:46;;;;;;;29.77;18.00;;;-3.30;99.90;;;;;;5090916;28;20933;-70
2021/01/15 06:49:18;;;;;;;23.10;14.20;;;-3.10;99.90;;;;;;5090708;28;20445;-69
2021/01/15 06:51:54;;;;;;;17.30;12.00;;;-3.00;99.90;;;;;;5090596;28;20805;-70
2021/01/15 06:54:26;;;;;;;18.50;10.97;;;-3.00;99.90;;;;;;5089656;28;20456;-70
2021/01/15 06:57:04;;;;;;;50.90;23.90;;;-3.00;99.90;;;;;;5070070;28;20438;-69
2021/01/15 06:59:33;;;;;;;19.53;12.43;;;-3.00;99.90;;;;;;5070387;28;20985;-70
2021/01/15 07:02:19;;;;;;;16.73;11.77;;;-3.00;99.90;;;;;;5070213;28;20456;-70
2021/01/15 07:05:00;;;;;;;17.17;12.40;;;-3.00;99.90;;;;;;5070270;28;20430;-70
2021/01/15 07:07:28;;;;;;;16.97;10.47;;;-3.10;99.90;;;;;;5070350;28;20426;-70
2021/01/15 07:09:59;;;;;;;15.10;9.60;;;-3.10;99.90;;;;;;5070050;28;20786;-69
2021/01/15 07:12:25;;;;;;;15.00;9.90;;;-3.20;99.90;;;;;;5070093;28;20426;-70
2021/01/15 07:14:56;;;;;;;22.73;13.03;;;-3.20;99.90;;;;;;5070150;28;20448;-69
2021/01/15 07:17:32;;;;;;;22.80;12.30;;;-3.20;99.90;;;;;;5070321;28;20434;-69
2021/01/15 07:20:10;;;;;;;24.77;16.37;;;-3.30;99.90;;;;;;5070136;28;20499;-69
2021/01/15 07:22:42;;;;;;;18.07;11.37;;;-3.30;99.90;;;;;;5069757;28;20462;-70
2021/01/15 07:25:12;;;;;;;14.70;10.00;;;-3.30;99.90;;;;;;5069662;28;20942;-69
2021/01/15 07:27:40;;;;;;;15.27;10.33;;;-3.30;99.90;;;;;;5070094;28;20441;-70
2021/01/15 07:30:12;;;;;;;17.93;13.50;;;-3.30;99.90;;;;;;5071340;28;20508;-70
2021/01/15 07:32:40;;;;;;;13.73;8.60;;;-3.40;99.90;;;;;;5073496;28;20450;-70
2021/01/15 07:35:14;;;;;;;18.47;11.60;;;-3.40;99.90;;;;;;5073643;28;20426;-70
2021/01/15 07:37:43;;;;;;;13.13;9.10;;;-3.50;99.90;;;;;;5072893;28;20437;-70
2021/01/15 07:40:14;;;;;;;18.10;9.77;;;-3.50;99.90;;;;;;5073460;28;20476;-70
2021/01/15 07:42:52;;;;;;;18.17;11.67;;;-3.50;99.90;;;;;;5073286;28;20454;-70
2021/01/15 07:45:53;;;;;;;15.00;13.37;;;-3.50;99.90;;;;;;5073787;28;20499;-69
2021/01/15 07:48:20;;;;;;;23.50;16.07;;;-3.40;99.90;;;;;;5073522;28;20807;-68
2021/01/15 07:50:49;;;;;;;28.67;16.10;;;-3.40;99.90;;;;;;5073355;28;20453;-68
2021/01/15 07:53:18;;;;;;;20.07;14.07;;;-3.40;99.90;;;;;;5073008;28;20448;-69
2021/01/15 07:55:48;;;;;;;19.70;12.30;;;-3.40;99.90;;;;;;5072623;28;20441;-68
2021/01/15 07:58:15;;;;;;;19.00;14.70;;;-3.40;99.90;;;;;;5073986;28;20423;-68
2021/01/15 08:00:42;;;;;;;16.67;11.70;;;-3.40;99.90;;;;;;5093158;28;20465;-69
2021/01/15 08:03:10;;;;;;;18.33;12.80;;;-3.40;99.90;;;;;;5093459;28;20452;-68
2021/01/15 08:05:37;;;;;;;14.40;11.20;;;-3.40;99.90;;;;;;5093330;28;20936;-69
2021/01/15 08:08:08;;;;;;;18.33;11.63;;;-3.40;99.90;;;;;;5093237;28;20436;-69
2021/01/15 08:10:45;;;;;;;18.10;13.67;;;-3.40;99.90;;;;;;5092884;28;20425;-69
2021/01/15 08:13:29;;;;;;;17.13;10.90;;;-3.30;99.90;;;;;;5087808;28;20480;-68
2021/01/15 08:15:57;;;;;;;13.37;9.40;;;-3.40;99.90;;;;;;5073028;28;20426;-69
2021/01/15 08:18:24;;;;;;;15.90;10.73;;;-3.30;99.90;;;;;;5072736;28;20426;-68
2021/01/15 08:20:53;;;;;;;13.50;10.50;;;-3.30;99.90;;;;;;5072711;28;20690;-68
2021/01/15 08:23:24;;;;;;;17.17;11.70;;;-3.40;99.90;;;;;;5071750;28;20497;-69
2021/01/15 08:26:19;;;;;;;17.47;10.47;;;-3.30;99.90;;;;;;5081059;28;20433;-68
2021/01/15 08:28:48;;;;;;;18.07;13.07;;;-3.30;99.90;;;;;;5082999;28;20443;-70
2021/01/15 08:31:20;;;;;;;15.03;10.20;;;-3.30;99.90;;;;;;5083013;28;20429;-69
2021/01/15 08:33:47;;;;;;;15.10;10.87;;;-3.30;99.90;;;;;;5081502;28;20434;-68
2021/01/15 08:36:18;;;;;;;14.97;10.33;;;-3.40;99.90;;;;;;5081615;28;20418;-68
2021/01/15 08:38:44;;;;;;;24.63;18.20;;;-3.40;99.90;;;;;;5082956;28;20794;-67
2021/01/15 08:41:15;;;;;;;13.03;7.93;;;-3.40;99.90;;;;;;5079784;28;20470;-67
2021/01/15 08:43:42;;;;;;;11.80;8.33;;;-3.40;99.90;;;;;;5081437;28;20524;-67
2021/01/15 08:46:17;;;;;;;16.43;9.87;;;-3.50;99.90;;;;;;5072302;28;20837;-67
2021/01/15 08:48:44;;;;;;;13.47;9.87;;;-3.50;99.90;;;;;;5072563;28;20437;-67
2021/01/15 08:51:12;;;;;;;14.73;10.93;;;-3.50;99.90;;;;;;5072294;28;20430;-67
2021/01/15 08:53:43;;;;;;;15.53;10.13;;;-3.50;99.90;;;;;;5071865;28;20450;-66
2021/01/15 08:56:14;;;;;;;11.00;8.40;;;-3.40;99.90;;;;;;5072186;28;20426;-67
2021/01/15 08:58:48;;;;;;;14.27;10.43;;;-3.40;99.90;;;;;;5072262;28;20756;-66
2021/01/15 09:01:29;;;;;;;14.80;10.17;;;-3.40;99.90;;;;;;5071900;28;20473;-66
2021/01/15 09:04:02;;;;;;;13.90;10.57;;;-3.40;99.90;;;;;;5071783;28;20445;-67
2021/01/15 09:06:30;;;;;;;15.33;9.53;;;-3.40;99.90;;;;;;5071253;28;20441;-67
2021/01/15 09:08:58;;;;;;;15.83;9.60;;;-3.50;99.90;;;;;;5071967;28;20441;-67
2021/01/15 09:11:29;;;;;;;14.37;9.10;;;-3.50;99.90;;;;;;5084512;28;20440;-67
2021/01/15 09:13:56;;;;;;;18.20;11.37;;;-3.60;99.90;;;;;;5080569;28;20542;-66
2021/01/15 09:16:24;;;;;;;18.40;11.17;;;-3.70;99.90;;;;;;5071701;28;20445;-66
2021/01/15 09:18:53;;;;;;;13.13;9.17;;;-3.70;99.90;;;;;;5071797;28;20438;-67
2021/01/15 09:21:20;;;;;;;16.17;10.23;;;-3.70;99.90;;;;;;5070933;28;20997;-66
2021/01/15 09:23:48;;;;;;;19.73;13.27;;;-3.60;99.90;;;;;;5071016;28;20434;-67
2021/01/15 09:26:16;;;;;;;18.00;10.77;;;-3.70;99.90;;;;;;5071033;28;20433;-67
2021/01/15 09:28:43;;;;;;;13.50;8.70;;;-3.80;99.90;;;;;;5071505;28;20499;-67
2021/01/15 09:31:10;;;;;;;17.17;11.20;;;-3.90;99.90;;;;;;5071144;28;20433;-67
2021/01/15 09:33:46;;;;;;;14.00;10.93;;;-3.90;99.90;;;;;;5070912;28;20461;-66
2021/01/15 09:36:23;;;;;;;17.97;12.37;;;-3.90;99.90;;;;;;5071314;28;20926;-67
2021/01/15 09:38:50;;;;;;;16.43;10.00;;;-3.90;99.90;;;;;;5070495;28;20500;-67
2021/01/15 09:41:17;;;;;;;23.83;16.03;;;-3.80;99.90;;;;;;5071141;28;20474;-66
2021/01/15 09:43:44;;;;;;;18.10;11.33;;;-3.60;99.90;;;;;;5071173;28;20442;-67
2021/01/15 09:46:20;;;;;;;17.33;10.77;;;-3.30;99.90;;;;;;5071290;28;20426;-67
2021/01/15 09:48:46;;;;;;;15.60;9.93;;;-3.20;99.90;;;;;;5071088;28;20787;-68
2021/01/15 09:51:14;;;;;;;15.57;10.47;;;-3.10;99.90;;;;;;5070866;28;20479;-68
2021/01/15 09:53:40;;;;;;;18.13;10.70;;;-3.10;99.90;;;;;;5070465;28;20442;-68
2021/01/15 09:56:07;;;;;;;14.57;10.87;;;-3.10;99.90;;;;;;5070320;28;20446;-68
2021/01/15 09:58:34;;;;;;;20.63;11.73;;;-3.10;99.90;;;;;;5071085;28;20426;-68
2021/01/15 10:01:01;;;;;;;17.70;12.00;;;-3.00;99.90;;;;;;5070844;28;21039;-68
2021/01/15 10:03:27;;;;;;;19.30;10.77;;;-2.90;99.90;;;;;;5070820;28;20464;-68
2021/01/15 10:05:54;;;;;;;16.63;11.63;;;-3.00;99.90;;;;;;5071165;28;20432;-68
2021/01/15 10:08:24;;;;;;;14.50;10.83;;;-2.90;99.90;;;;;;5070397;28;20430;-68
2021/01/15 10:10:51;;;;;;;17.90;11.73;;;-2.80;99.90;;;;;;5068717;28;20430;-68
2021/01/15 10:13:20;;;;;;;22.50;12.93;;;-2.80;99.90;;;;;;5070307;28;20457;-68
2021/01/15 10:15:47;;;;;;;18.80;11.70;;;-2.80;99.90;;;;;;5070912;28;20915;-68
2021/01/15 10:18:14;;;;;;;19.57;11.10;;;-2.70;99.90;;;;;;5070273;28;20442;-68
2021/01/15 10:20:44;;;;;;;19.37;11.80;;;-2.50;99.90;;;;;;5070659;28;20469;-68
2021/01/15 10:23:11;;;;;;;19.47;11.63;;;-2.40;99.90;;;;;;5069968;28;20445;-69
2021/01/15 10:25:41;;;;;;;23.40;13.20;;;-2.40;99.90;;;;;;5070853;28;20418;-68
2021/01/15 10:28:07;;;;;;;23.43;12.80;;;-2.50;99.90;;;;;;5070689;28;20438;-69
2021/01/15 10:30:34;;;;;;;19.53;11.27;;;-2.50;99.90;;;;;;5070497;28;20430;-68
2021/01/15 10:33:01;;;;;;;21.50;11.60;;;-2.50;99.90;;;;;;5070541;28;20433;-68
2021/01/15 10:35:27;;;;;;;16.50;11.37;;;-2.50;99.90;;;;;;5070655;28;20426;-68
2021/01/15 10:37:54;;;;;;;21.67;12.70;;;-2.40;99.90;;;;;;5070377;28;20433;-68
2021/01/15 10:40:20;;;;;;;20.20;12.67;;;-2.20;99.90;;;;;;5070437;28;20513;-68
2021/01/15 10:42:48;;;;;;;19.63;11.53;;;-2.20;99.90;;;;;;5070417;28;20469;-68
2021/01/15 10:45:15;;;;;;;20.10;11.73;;;-2.10;99.90;;;;;;5070577;28;20426;-69
2021/01/15 10:47:42;;;;;;;19.77;10.93;;;-2.00;99.90;;;;;;5070533;28;20431;-69
2021/01/15 10:50:09;;;;;;;16.33;10.67;;;-1.90;99.90;;;;;;5070605;28;20425;-69
2021/01/15 10:52:36;;;;;;;23.93;13.67;;;-1.70;99.90;;;;;;5070138;28;20787;-69
2021/01/15 10:55:03;;;;;;;18.57;11.20;;;-1.80;99.90;;;;;;5070437;28;20425;-69
2021/01/15 10:57:30;;;;;;;21.90;12.17;;;-1.80;99.90;;;;;;5070480;28;20422;-69
2021/01/15 10:59:57;;;;;;;23.33;12.43;;;-1.80;99.90;;;;;;5070217;28;20983;-69
2021/01/15 11:02:24;;;;;;;22.73;12.63;;;-1.70;99.90;;;;;;5070265;28;20422;-69
2021/01/15 11:04:51;;;;;;;14.30;9.83;;;-1.80;99.90;;;;;;5072417;28;20774;-69
2021/01/15 11:07:17;;;;;;;19.77;10.70;;;-1.70;99.90;;;;;;5074129;28;20423;-69
2021/01/15 11:09:44;;;;;;;14.90;9.90;;;-1.80;99.90;;;;;;5090211;28;20433;-69
2021/01/15 11:12:11;;;;;;;18.03;11.03;;;-1.80;99.90;;;;;;5094188;28;20436;-68
2021/01/15 11:14:37;;;;;;;17.87;10.03;;;-2.00;99.90;;;;;;5094324;28;20445;-69
2021/01/15 11:17:05;;;;;;;15.97;11.03;;;-1.90;99.90;;;;;;5094326;28;20421;-69
2021/01/15 11:19:32;;;;;;;17.70;10.70;;;-1.80;99.90;;;;;;5094088;28;20425;-69
2021/01/15 11:21:59;;;;;;;20.93;11.77;;;-1.60;99.90;;;;;;5093774;28;20432;-69
2021/01/15 11:24:26;;;;;;;15.30;9.90;;;-1.50;99.90;;;;;;5082443;28;20978;-69
2021/01/15 11:27:09;;;;;;;18.63;11.83;;;-1.40;99.90;;;;;;5073774;28;20429;-69
2021/01/15 11:29:36;;;;;;;25.17;11.93;;;-1.30;99.90;;;;;;5073906;28;20429;-68
2021/01/15 11:32:04;;;;;;;18.00;10.83;;;-1.30;99.90;;;;;;5073681;28;20422;-69
2021/01/15 11:34:31;;;;;;;21.00;10.03;;;-1.40;99.90;;;;;;5073588;28;20811;-69
2021/01/15 11:36:58;;;;;;;23.73;12.00;;;-1.60;99.90;;;;;;5073792;28;20441;-69
2021/01/15 11:39:27;;;;;;;23.40;10.30;;;-1.60;99.90;;;;;;5079190;28;20457;-70
2021/01/15 11:41:55;;;;;;;16.03;10.03;;;-1.50;99.90;;;;;;5079540;28;20449;-68
2021/01/15 11:44:22;;;;;;;18.13;10.20;;;-1.50;99.90;;;;;;5088770;28;20465;-69
2021/01/15 11:46:49;;;;;;;18.53;10.73;;;-1.40;99.90;;;;;;5082995;28;20917;-67
2021/01/15 11:49:16;;;;;;;20.87;11.30;;;-1.40;99.90;;;;;;5087764;28;20975;-69
2021/01/15 11:51:45;;;;;;;23.57;10.50;;;-1.20;99.90;;;;;;5093516;28;20433;-68
2021/01/15 11:54:20;;;;;;;20.00;11.43;;;-1.30;99.90;;;;;;5080561;28;20482;-68
2021/01/15 11:56:50;;;;;;;18.43;10.90;;;-1.20;99.90;;;;;;5073592;28;20801;-69
2021/01/15 11:59:19;;;;;;;19.67;11.90;;;-1.10;99.90;;;;;;5073162;28;20438;-67
2021/01/15 12:01:46;;;;;;;22.47;11.97;;;-0.90;99.90;;;;;;5073054;28;20465;-68
2021/01/15 12:04:13;;;;;;;22.90;12.93;;;-1.00;99.90;;;;;;5072247;28;20527;-68
2021/01/15 12:06:41;;;;;;;16.07;10.83;;;-1.10;99.90;;;;;;5073108;28;20445;-69
2021/01/15 12:09:07;;;;;;;22.87;12.40;;;-1.00;99.90;;;;;;5075791;28;20941;-68
2021/01/15 12:11:37;;;;;;;26.73;11.10;;;-1.00;99.90;;;;;;5089451;28;20429;-68
2021/01/15 12:14:03;;;;;;;17.13;10.10;;;-0.90;99.90;;;;;;5080205;28;20453;-68
2021/01/15 12:16:30;;;;;;;19.07;10.80;;;-0.90;99.90;;;;;;5072756;28;20943;-68
2021/01/15 12:18:56;;;;;;;16.27;10.67;;;-0.90;99.90;;;;;;5072912;28;20448;-68
2021/01/15 12:21:23;;;;;;;22.17;10.60;;;-0.80;99.90;;;;;;5076696;28;20499;-68
2021/01/15 12:23:51;;;;;;;14.60;10.60;;;-0.80;99.90;;;;;;5073420;28;20462;-68
2021/01/15 12:26:17;;;;;;;18.70;10.57;;;-0.80;99.90;;;;;;5072474;28;20449;-68
2021/01/15 12:28:44;;;;;;;21.80;11.53;;;-0.80;99.90;;;;;;5072046;28;20464;-68
2021/01/15 12:31:10;;;;;;;19.20;11.03;;;-0.70;99.90;;;;;;5072770;28;20434;-68
2021/01/15 12:33:37;;;;;;;20.63;10.83;;;-0.70;99.90;;;;;;5072501;28;20445;-68
2021/01/15 12:36:04;;;;;;;17.17;11.40;;;-0.90;99.90;;;;;;5072537;28;20426;-67
2021/01/15 12:38:31;;;;;;;21.60;11.40;;;-1.00;99.90;;;;;;5072593;28;20464;-69
2021/01/15 12:40:59;;;;;;;17.90;10.50;;;-1.10;99.90;;;;;;5071491;28;20550;-71
2021/01/15 12:43:26;;;;;;;18.90;11.47;;;-1.10;99.90;;;;;;5072270;28;21143;-69
2021/01/15 12:45:52;;;;;;;17.37;10.47;;;-1.00;99.90;;;;;;5076772;28;20429;-70
2021/01/15 12:48:19;;;;;;;18.43;11.27;;;-1.00;99.90;;;;;;5079340;28;20453;-70